createdAt,value
2019-06-26T00:00:22.725Z,28.7
2019-06-26T00:10:46.300Z,31.8
2019-06-26T00:21:00.716Z,33.0
2019-06-26T00:31:54.761Z,31.4
2019-06-26T00:42:40.132Z,32.1
2019-06-26T00:53:24.534Z,39.0
2019-06-26T01:03:38.032Z,31.9
2019-06-26T01:13:57.789Z,33.9
2019-06-26T01:24:02.692Z,34.2
2019-06-26T01:34:49.183Z,44.0
2019-06-26T01:45:02.620Z,32.1
2019-06-26T01:55:14.054Z,32.5
2019-06-26T02:05:59.409Z,34.2
2019-06-26T02:16:13.421Z,33.4
2019-06-26T02:26:27.096Z,31.5
2019-06-26T02:37:11.775Z,48.1
2019-06-26T02:47:57.105Z,43.7
2019-06-26T02:58:10.758Z,41.9
2019-06-26T03:08:55.218Z,42.8
2019-06-26T03:19:06.917Z,46.8
2019-06-26T03:29:21.330Z,42.9
2019-06-26T03:39:35.301Z,53.8
2019-06-26T03:49:48.788Z,45.8
2019-06-26T04:00:03.519Z,46.0
2019-06-26T04:10:17.057Z,45.8
2019-06-26T04:20:30.185Z,49.7
2019-06-26T04:46:26.078Z,57.0
2019-06-26T04:56:37.617Z,53.3
2019-06-26T05:06:50.913Z,53.3
2019-06-26T05:17:05.243Z,53.6
2019-06-26T05:27:19.233Z,52.6
2019-06-26T05:37:32.601Z,68.4
2019-06-26T05:47:46.774Z,62.5
2019-06-26T05:58:03.754Z,61.7
2019-06-26T06:08:48.612Z,70.9
2019-06-26T06:19:05.170Z,60.2
2019-06-26T06:29:17.290Z,56.3
2019-06-26T06:40:06.874Z,67.4
2019-06-26T06:50:18.456Z,66.1
2019-06-26T07:01:06.172Z,56.2
2019-06-26T07:11:20.386Z,59.0
2019-06-26T07:21:33.250Z,55.8
2019-06-26T07:31:46.925Z,64.5
2019-06-26T07:42:00.267Z,64.6
2019-06-26T07:52:14.180Z,76.4
2019-06-26T08:02:34.872Z,74.6
2019-06-26T08:12:48.218Z,64.8
2019-06-26T08:23:03.794Z,59.2
2019-06-26T08:33:18.838Z,53.0
2019-06-26T08:43:34.188Z,55.1
2019-06-26T08:54:22.012Z,51.3
2019-06-26T09:04:35.447Z,48.7
2019-06-26T09:14:46.791Z,69.5
2019-06-26T09:25:01.274Z,60.2
2019-06-26T09:35:48.675Z,59.9
2019-06-26T09:46:03.106Z,58.2
2019-06-26T09:56:16.250Z,56.4
2019-06-26T10:06:30.388Z,50.5
2019-06-26T10:17:16.812Z,46.3
2019-06-26T10:27:30.304Z,38.3
2019-06-26T10:38:16.930Z,29.9
2019-06-26T10:48:32.073Z,24.9
2019-06-26T10:58:45.878Z,25.8
2019-06-26T11:08:58.944Z,21.7
2019-06-26T11:19:12.254Z,22.8
2019-06-26T11:29:25.245Z,22.4
2019-06-26T11:39:38.641Z,22.0
2019-06-26T11:49:59.297Z,22.1
2019-06-26T12:00:41.447Z,24.4
2019-06-26T12:10:50.811Z,20.4
2019-06-26T12:21:35.748Z,21.4
2019-06-26T12:31:46.973Z,22.4
2019-06-26T12:42:00.455Z,22.2
2019-06-26T12:52:16.824Z,22.6
2019-06-26T13:02:26.988Z,27.2
2019-06-26T13:12:45.936Z,19.3
2019-06-26T13:22:56.208Z,21.2
2019-06-26T13:33:07.251Z,27.1
2019-06-26T13:43:54.030Z,21.4
2019-06-26T13:54:45.779Z,23.8
2019-06-26T14:04:59.943Z,24.6
2019-06-26T14:15:13.427Z,21.2
2019-06-26T14:25:27.620Z,25.7
2019-06-26T14:35:42.041Z,21.6
2019-06-26T14:45:53.260Z,21.6
2019-06-26T14:56:04.324Z,21.2
2019-06-26T15:06:17.905Z,24.5
2019-06-26T15:16:31.872Z,22.0
2019-06-26T15:26:45.437Z,20.7
2019-06-26T15:36:59.776Z,25.3
2019-06-26T15:47:13.700Z,22.7
2019-06-26T15:57:29.341Z,23.4
2019-06-26T16:07:43.085Z,25.5
2019-06-26T16:17:58.291Z,23.7
2019-06-26T16:28:26.218Z,23.4
2019-06-26T16:39:28.651Z,23.7
2019-06-26T16:50:58.310Z,30.6
2019-06-26T17:02:07.008Z,24.7
2019-06-26T17:13:13.848Z,27.8
2019-06-26T17:25:54.201Z,27.4
2019-06-26T17:36:05.882Z,28.3
2019-06-26T17:46:51.584Z,26.9
2019-06-26T18:28:41.221Z,25.6
2019-06-26T18:59:49.735Z,29.9
2019-06-26T19:11:32.118Z,28.8
2019-06-26T19:27:36.733Z,30.8
2019-06-26T19:53:36.007Z,26.5
2019-06-26T20:42:09.706Z,28.7
2019-06-26T20:57:53.921Z,31.2
2019-06-26T21:09:50.782Z,26.9
2019-06-26T22:47:14.234Z,37.0
2019-06-26T23:05:02.272Z,29.2
2019-06-26T23:25:48.672Z,31.8
2019-06-26T23:52:19.124Z,36.6
